createdAt,value
2023-01-19T00:03:17.788Z,8.15
2023-01-19T00:08:21.242Z,7.90
2023-01-19T00:13:26.213Z,7.72
2023-01-19T00:18:29.687Z,8.19
2023-01-19T00:23:33.013Z,8.46
2023-01-19T00:28:38.725Z,8.50
2023-01-19T00:33:42.150Z,9.22
2023-01-19T00:38:45.732Z,8.84
2023-01-19T00:43:50.694Z,8.75
2023-01-19T00:48:54.022Z,8.65
2023-01-19T00:53:57.396Z,8.58
2023-01-19T00:59:02.162Z,9.24
2023-01-19T01:04:05.754Z,9.23
2023-01-19T01:09:11.902Z,8.91
2023-01-19T01:14:17.251Z,9.52
2023-01-19T01:19:21.358Z,9.27
2023-01-19T01:24:24.766Z,9.11
2023-01-19T01:29:29.591Z,9.27
2023-01-19T01:34:33.001Z,8.86
2023-01-19T01:39:39.293Z,8.78
2023-01-19T01:44:52.301Z,8.82
2023-01-19T01:49:59.060Z,8.65
2023-01-19T01:55:06.785Z,9.10
2023-01-19T02:00:12.752Z,8.98
2023-01-19T02:05:18.742Z,9.29
2023-01-19T02:10:39.870Z,8.97
2023-01-19T02:15:44.661Z,8.39
2023-01-19T02:20:54.273Z,8.99
2023-01-19T02:25:59.124Z,9.27
2023-01-19T02:31:02.602Z,9.30
2023-01-19T02:36:08.778Z,8.57
2023-01-19T02:41:16.476Z,8.20
2023-01-19T02:46:20.011Z,8.83
2023-01-19T02:51:25.109Z,8.76
2023-01-19T02:56:40.866Z,8.63
2023-01-19T03:02:05.406Z,8.28
2023-01-19T03:07:12.397Z,9.15
2023-01-19T03:12:23.104Z,8.49
2023-01-19T03:17:27.324Z,9.03
2023-01-19T03:22:30.893Z,8.92
2023-01-19T03:27:40.786Z,8.76
2023-01-19T03:32:48.650Z,8.42
2023-01-19T03:37:54.095Z,8.64
2023-01-19T03:43:00.695Z,8.95
2023-01-19T03:48:05.058Z,8.28
2023-01-19T03:53:10.562Z,8.70
2023-01-19T03:58:15.384Z,8.56
2023-01-19T04:03:19.709Z,8.04
2023-01-19T04:08:23.091Z,8.93
2023-01-19T04:13:28.565Z,8.24
2023-01-19T04:18:34.680Z,7.46
2023-01-19T04:23:38.167Z,7.87
2023-01-19T04:28:42.957Z,7.82
2023-01-19T04:33:46.367Z,8.63
2023-01-19T04:38:49.815Z,9.16
2023-01-19T04:43:54.632Z,8.39
2023-01-19T04:48:58.138Z,8.88
2023-01-19T04:54:01.619Z,9.03
2023-01-19T04:59:06.370Z,9.07
2023-01-19T05:04:09.810Z,9.29
2023-01-19T05:09:15.168Z,9.35
2023-01-19T05:14:20.088Z,8.27
2023-01-19T05:19:23.666Z,8.78
2023-01-19T05:24:27.039Z,9.37
2023-01-19T05:29:31.763Z,9.21
2023-01-19T05:34:35.311Z,9.84
2023-01-19T05:39:38.889Z,9.86
2023-01-19T05:45:11.864Z,9.89
2023-01-19T05:50:36.253Z,9.32
2023-01-19T05:55:39.640Z,9.12
2023-01-19T06:00:44.389Z,9.11
2023-01-19T06:05:47.946Z,9.88
2023-01-19T06:10:51.313Z,10.30
2023-01-19T06:16:00.182Z,9.67
2023-01-19T06:21:05.261Z,9.20
2023-01-19T06:26:08.666Z,9.69
2023-01-19T06:31:13.501Z,9.51
2023-01-19T06:36:16.938Z,9.62
2023-01-19T06:41:20.295Z,9.48
2023-01-19T06:46:26.033Z,9.36
2023-01-19T06:51:29.403Z,10.27
2023-01-19T06:56:32.753Z,9.39
2023-01-19T07:01:37.682Z,9.27
2023-01-19T07:06:41.518Z,10.21
2023-01-19T07:11:44.869Z,10.00
2023-01-19T07:16:49.664Z,10.39
2023-01-19T07:21:53.088Z,9.96
2023-01-19T07:26:56.441Z,10.03
2023-01-19T07:32:01.168Z,10.35
2023-01-19T07:37:04.738Z,10.31
2023-01-19T07:42:08.112Z,10.53
2023-01-19T07:47:15.151Z,10.59
2023-01-19T07:52:18.547Z,10.07
2023-01-19T07:57:22.087Z,10.24
2023-01-19T08:02:26.936Z,10.36
2023-01-19T08:07:30.435Z,9.90
2023-01-19T08:12:33.836Z,10.74
2023-01-19T08:17:38.757Z,9.70
2023-01-19T08:22:42.097Z,9.82
2023-01-19T08:27:45.855Z,9.57
2023-01-19T08:32:50.743Z,10.19
2023-01-19T08:37:54.168Z,10.19
2023-01-19T08:43:03.468Z,9.63
2023-01-19T08:48:09.850Z,10.35
2023-01-19T08:53:13.245Z,10.95
2023-01-19T08:58:17.394Z,9.79
2023-01-19T09:03:22.585Z,10.28
2023-01-19T09:08:26.083Z,10.07
2023-01-19T09:13:49.777Z,9.66
2023-01-19T09:18:54.790Z,9.89
2023-01-19T09:23:58.297Z,10.37
2023-01-19T09:29:01.764Z,9.13
2023-01-19T09:34:07.789Z,9.40
2023-01-19T09:39:11.590Z,9.69
2023-01-19T09:44:19.320Z,10.29
2023-01-19T09:49:28.032Z,10.44
2023-01-19T09:54:37.326Z,9.66
2023-01-19T09:59:41.519Z,10.09
2023-01-19T10:04:49.190Z,10.48
2023-01-19T10:10:05.180Z,10.60
2023-01-19T10:15:16.763Z,9.64
2023-01-19T10:20:27.061Z,10.44
2023-01-19T10:25:30.758Z,10.15
2023-01-19T10:30:34.425Z,9.56
2023-01-19T10:35:39.482Z,9.56
2023-01-19T10:40:47.795Z,9.65
2023-01-19T10:45:51.738Z,9.84
2023-01-19T10:51:05.177Z,10.79
2023-01-19T10:56:17.465Z,9.70
2023-01-19T11:01:22.892Z,10.32
2023-01-19T11:06:29.942Z,10.95
2023-01-19T11:11:43.256Z,9.22
2023-01-19T11:16:49.543Z,10.12
2023-01-19T11:21:54.931Z,9.33
2023-01-19T11:27:02.929Z,10.74
2023-01-19T11:32:18.995Z,10.71
2023-01-19T11:37:34.547Z,10.56
2023-01-19T11:42:38.326Z,10.85
2023-01-19T11:47:44.436Z,11.17
2023-01-19T11:52:53.582Z,11.02
2023-01-19T11:57:57.317Z,11.05
2023-01-19T12:03:25.604Z,10.30
2023-01-19T12:08:34.062Z,11.16
2023-01-19T12:13:37.516Z,10.42
2023-01-19T12:18:45.003Z,10.74
2023-01-19T12:23:57.268Z,10.44
2023-01-19T12:29:04.389Z,10.79
2023-01-19T12:34:32.047Z,10.70
2023-01-19T12:39:48.719Z,10.60
2023-01-19T12:44:55.774Z,10.22
2023-01-19T12:50:03.635Z,11.18
2023-01-19T12:55:24.251Z,11.03
2023-01-19T13:00:34.136Z,11.01
2023-01-19T13:05:58.581Z,10.80
2023-01-19T13:11:23.710Z,11.25
2023-01-19T13:17:02.278Z,11.23
2023-01-19T13:22:43.136Z,11.20
2023-01-19T13:27:49.792Z,10.93
2023-01-19T13:33:17.111Z,10.37
2023-01-19T13:38:20.464Z,10.58
2023-01-19T13:43:29.484Z,11.00
2023-01-19T13:48:33.517Z,11.00
2023-01-19T13:53:36.949Z,11.31
2023-01-19T13:58:41.683Z,11.07
2023-01-19T14:03:52.084Z,11.28
2023-01-19T14:09:09.300Z,11.17
2023-01-19T14:14:27.751Z,11.34
2023-01-19T14:19:31.250Z,11.55
2023-01-19T14:24:34.794Z,11.70
2023-01-19T14:29:39.543Z,11.73
2023-01-19T14:34:44.697Z,12.11
2023-01-19T14:39:50.168Z,12.00
2023-01-19T14:44:56.644Z,12.06
2023-01-19T14:50:04.875Z,11.50
2023-01-19T14:55:19.186Z,11.31
2023-01-19T15:00:24.625Z,10.88
2023-01-19T15:05:28.034Z,10.64
2023-01-19T15:10:31.518Z,10.98
2023-01-19T15:15:36.654Z,11.37
2023-01-19T15:20:40.048Z,11.12
2023-01-19T15:25:43.439Z,11.17
2023-01-19T15:30:48.197Z,10.90
2023-01-19T15:35:51.798Z,11.13
2023-01-19T15:40:55.165Z,11.22
2023-01-19T15:46:01.814Z,11.17
2023-01-19T15:51:05.661Z,10.45
2023-01-19T15:56:14.501Z,10.67
2023-01-19T16:01:21.275Z,10.48
2023-01-19T16:06:24.740Z,10.58
2023-01-19T16:11:28.782Z,11.02
2023-01-19T16:16:33.737Z,10.94
2023-01-19T16:21:37.207Z,10.52
2023-01-19T16:26:41.055Z,10.24
2023-01-19T16:31:46.039Z,10.48
2023-01-19T16:36:49.830Z,10.50
2023-01-19T16:41:53.273Z,10.21
2023-01-19T16:46:57.994Z,9.65
2023-01-19T16:52:01.576Z,10.05
2023-01-19T16:57:05.154Z,9.95
2023-01-19T17:02:11.450Z,10.01
2023-01-19T17:07:14.838Z,10.31
2023-01-19T17:12:18.180Z,10.00
2023-01-19T17:17:22.853Z,10.31
2023-01-19T17:22:26.307Z,9.85
2023-01-19T17:27:29.929Z,10.40
2023-01-19T17:32:34.627Z,10.07
2023-01-19T17:37:37.966Z,9.86
2023-01-19T17:42:41.976Z,9.72
2023-01-19T17:47:49.218Z,9.79
2023-01-19T17:52:52.718Z,9.63
2023-01-19T17:57:56.110Z,9.93
2023-01-19T18:03:00.887Z,10.13
2023-01-19T18:08:04.289Z,9.84
2023-01-19T18:13:07.635Z,10.16
2023-01-19T18:18:12.329Z,9.29
2023-01-19T18:23:15.716Z,10.00
2023-01-19T18:28:19.057Z,9.55
2023-01-19T18:33:24.147Z,9.79
2023-01-19T18:38:27.522Z,9.60
2023-01-19T18:43:30.882Z,9.86
2023-01-19T18:48:36.389Z,10.29
2023-01-19T18:53:40.199Z,10.07
2023-01-19T18:58:44.702Z,10.12
2023-01-19T19:03:49.523Z,10.30
2023-01-19T19:08:53.968Z,10.41
2023-01-19T19:13:59.032Z,10.27
2023-01-19T19:19:03.713Z,10.25
2023-01-19T19:24:11.227Z,9.99
2023-01-19T19:29:14.654Z,9.78
2023-01-19T19:34:19.382Z,9.85
2023-01-19T19:39:22.749Z,9.74
2023-01-19T19:44:26.074Z,9.31
2023-01-19T19:49:30.736Z,9.51
2023-01-19T19:54:34.148Z,9.73
2023-01-19T19:59:37.557Z,9.58
2023-01-19T20:04:42.925Z,9.61
2023-01-19T20:09:46.372Z,10.21
2023-01-19T20:14:49.810Z,10.07
2023-01-19T20:19:54.553Z,9.99
2023-01-19T20:24:57.940Z,10.06
2023-01-19T20:30:01.446Z,9.67
2023-01-19T20:35:07.173Z,9.69
2023-01-19T20:40:11.056Z,10.24
2023-01-19T20:45:21.750Z,10.00
2023-01-19T20:50:26.494Z,10.15
2023-01-19T20:55:45.100Z,10.10
2023-01-19T21:00:48.757Z,10.01
2023-01-19T21:05:53.433Z,9.90
2023-01-19T21:10:59.873Z,9.89
2023-01-19T21:16:03.492Z,9.63
2023-01-19T21:21:14.932Z,9.68
2023-01-19T21:26:24.485Z,9.70
2023-01-19T21:31:28.610Z,9.63
2023-01-19T21:36:33.394Z,9.61
2023-01-19T21:41:38.015Z,9.54
2023-01-19T21:46:41.485Z,9.48
2023-01-19T21:51:47.948Z,9.43
2023-01-19T21:56:51.513Z,9.31
2023-01-19T22:01:55.123Z,9.35
2023-01-19T22:06:59.864Z,9.28
2023-01-19T22:12:03.423Z,9.22
2023-01-19T22:17:06.739Z,9.17
2023-01-19T22:22:11.441Z,9.22
2023-01-19T22:27:14.928Z,9.24
2023-01-19T22:32:18.413Z,8.92
2023-01-19T22:37:23.165Z,9.19
2023-01-19T22:42:26.590Z,9.21
2023-01-19T22:47:29.998Z,9.20
2023-01-19T22:52:34.764Z,9.16
2023-01-19T22:57:39.568Z,9.33
2023-01-19T23:02:43.120Z,9.26
2023-01-19T23:07:47.821Z,9.23
2023-01-19T23:12:51.246Z,9.10
2023-01-19T23:17:54.609Z,9.04
2023-01-19T23:22:59.392Z,9.11
2023-01-19T23:28:02.832Z,8.96
2023-01-19T23:33:06.248Z,8.97
2023-01-19T23:38:11.003Z,8.91
2023-01-19T23:43:14.451Z,8.76
2023-01-19T23:48:17.856Z,8.79
2023-01-19T23:53:22.542Z,8.73
2023-01-19T23:58:25.923Z,8.72
